CN13 weather

Aviosuperficie Giancarlo Filippi
Mondovì (CN), Piedmont, Italy

Public forecast

Using degrees Celsius for public forecast. Weather courtesy of forecast.io.

Closest aviation weather report (METAR) to Aviosuperficie Giancarlo Filippi

Report is more than 2 hours old.

Closest report is Cuneo International Airport, 11.5 nm (21.3 km) NW. Retrieved 2020/05/27 18:50 UTC (5 hours ago):

LIMZ 271850Z 00000KT CAVOK 21/09 Q1027

Closest aviation forecast (TAF) to Aviosuperficie Giancarlo Filippi

Closest forecast is Cuneo International Airport, 11.5 nm (21.3 km) NW. Retrieved 2020/05/27 18:21 UTC (5 hours ago):

TAF LIMZ 271700Z 2718/2818 VRB05KT 9999 FEW050